createdAt,value
2022-11-14T00:02:39.532Z,15.30
2022-11-14T00:05:24.861Z,16.00
2022-11-14T00:08:20.931Z,14.73
2022-11-14T00:11:06.059Z,14.32
2022-11-14T00:13:51.128Z,14.23
2022-11-14T00:16:36.817Z,15.07
2022-11-14T00:19:22.254Z,15.30
2022-11-14T00:22:07.466Z,15.95
2022-11-14T00:24:52.937Z,14.00
2022-11-14T00:27:38.313Z,14.52
2022-11-14T00:30:23.478Z,13.95
2022-11-14T00:33:08.858Z,14.27
2022-11-14T00:35:54.868Z,15.65
2022-11-14T00:38:40.287Z,15.00
2022-11-14T00:41:26.060Z,14.93
2022-11-14T00:44:11.593Z,15.38
2022-11-14T00:46:57.164Z,15.27
2022-11-14T00:49:42.689Z,14.70
2022-11-14T00:52:27.805Z,15.30
2022-11-14T00:55:13.136Z,13.90
2022-11-14T00:57:58.279Z,14.65
2022-11-14T01:00:43.588Z,14.65
2022-11-14T01:03:29.274Z,15.52
2022-11-14T01:06:15.852Z,14.82
2022-11-14T01:09:01.352Z,15.77
2022-11-14T01:11:46.557Z,15.50
2022-11-14T01:14:31.632Z,14.82
2022-11-14T01:17:17.082Z,15.57
2022-11-14T01:20:02.666Z,15.30
2022-11-14T01:22:48.010Z,15.25
2022-11-14T01:25:33.849Z,15.05
2022-11-14T01:28:19.482Z,14.57
2022-11-14T01:31:10.771Z,13.70
2022-11-14T01:33:55.868Z,15.38
2022-11-14T01:36:41.265Z,15.52
2022-11-14T01:39:27.209Z,14.35
2022-11-14T01:42:12.242Z,16.27
2022-11-14T01:44:57.688Z,15.30
2022-11-14T01:47:43.297Z,15.18
2022-11-14T01:50:28.565Z,14.50
2022-11-14T01:53:13.955Z,15.90
2022-11-14T01:56:01.162Z,15.25
2022-11-14T01:58:49.301Z,14.80
2022-11-14T02:01:38.565Z,14.25
2022-11-14T02:04:32.327Z,15.20
2022-11-14T02:07:18.676Z,15.43
2022-11-14T02:10:06.201Z,14.93
2022-11-14T02:12:53.154Z,15.57
2022-11-14T02:15:38.830Z,15.15
2022-11-14T02:18:24.214Z,15.00
2022-11-14T02:21:09.574Z,14.85
2022-11-14T02:23:54.947Z,15.85
2022-11-14T02:26:41.524Z,14.35
2022-11-14T02:29:26.517Z,16.90
2022-11-14T02:32:11.766Z,17.48
2022-11-14T02:34:56.972Z,17.15
2022-11-14T02:37:42.286Z,17.95
2022-11-14T02:40:27.702Z,17.20
2022-11-14T02:43:12.912Z,17.00
2022-11-14T02:46:01.512Z,18.15
2022-11-14T02:48:50.760Z,16.70
2022-11-14T02:51:36.511Z,17.17
2022-11-14T02:54:22.012Z,15.73
2022-11-14T02:57:07.454Z,16.88
2022-11-14T02:59:52.861Z,17.05
2022-11-14T03:02:38.014Z,17.75
2022-11-14T03:05:23.368Z,17.60
2022-11-14T03:08:08.388Z,16.52
2022-11-14T03:10:54.166Z,16.05
2022-11-14T03:13:39.237Z,16.42
2022-11-14T03:16:24.522Z,16.27
2022-11-14T03:19:09.537Z,14.90
2022-11-14T03:21:54.688Z,15.02
2022-11-14T03:24:40.116Z,16.27
2022-11-14T03:27:25.523Z,16.20
2022-11-14T03:30:11.193Z,16.77
2022-11-14T03:32:56.449Z,16.17
2022-11-14T03:35:44.779Z,16.23
2022-11-14T03:38:30.894Z,15.73
2022-11-14T03:41:16.462Z,16.52
2022-11-14T03:44:01.622Z,16.98
2022-11-14T03:46:47.021Z,16.65
2022-11-14T03:49:32.412Z,16.48
2022-11-14T03:52:17.862Z,16.85
2022-11-14T03:55:03.382Z,16.35
2022-11-14T03:57:48.689Z,15.10
2022-11-14T04:00:34.195Z,16.58
2022-11-14T04:03:19.293Z,16.08
2022-11-14T04:06:04.871Z,15.43
2022-11-14T04:08:51.904Z,15.52
2022-11-14T04:11:37.689Z,16.02
2022-11-14T04:14:22.926Z,15.90
2022-11-14T04:17:08.253Z,15.55
2022-11-14T04:19:53.672Z,15.20
2022-11-14T04:22:39.048Z,15.48
2022-11-14T04:25:24.567Z,15.32
2022-11-14T04:28:09.714Z,14.65
2022-11-14T04:30:55.135Z,15.50
2022-11-14T04:33:40.777Z,15.60
2022-11-14T04:36:25.873Z,15.27
2022-11-14T04:39:11.326Z,14.60
2022-11-14T04:41:56.638Z,15.95
2022-11-14T04:44:42.247Z,15.48
2022-11-14T04:47:27.655Z,15.77
2022-11-14T04:50:13.180Z,15.93
2022-11-14T04:52:58.369Z,15.70
2022-11-14T04:55:44.226Z,15.57
2022-11-14T04:58:29.930Z,16.13
2022-11-14T05:01:15.584Z,15.95
2022-11-14T05:04:00.761Z,14.82
2022-11-14T05:06:46.360Z,15.27
2022-11-14T05:09:31.943Z,15.48
2022-11-14T05:12:17.193Z,15.05
2022-11-14T05:15:02.693Z,15.68
2022-11-14T05:17:47.935Z,16.15
2022-11-14T05:20:33.335Z,14.80
2022-11-14T05:23:20.454Z,14.70
2022-11-14T05:26:06.983Z,15.18
2022-11-14T05:28:52.174Z,15.43
2022-11-14T05:31:37.515Z,15.82
2022-11-14T05:34:22.696Z,14.68
2022-11-14T05:37:08.542Z,15.02
2022-11-14T05:39:53.766Z,15.73
2022-11-14T05:42:39.122Z,15.40
2022-11-14T05:45:24.639Z,14.18
2022-11-14T05:48:09.943Z,14.20
2022-11-14T05:50:58.996Z,13.93
2022-11-14T05:53:44.352Z,13.15
2022-11-14T05:56:29.923Z,14.00
2022-11-14T05:59:15.211Z,13.93
2022-11-14T06:02:00.676Z,14.13
2022-11-14T06:04:46.238Z,14.10
2022-11-14T06:07:31.557Z,14.32
2022-11-14T06:10:16.845Z,14.10
2022-11-14T06:13:02.370Z,14.07
2022-11-14T06:15:47.732Z,14.40
2022-11-14T06:18:33.435Z,16.00
2022-11-14T06:21:20.118Z,15.95
2022-11-14T06:24:05.967Z,46.10
2022-11-14T06:26:51.040Z,29.70
2022-11-14T06:29:36.435Z,15.98
2022-11-14T06:32:21.599Z,15.45
2022-11-14T06:35:08.407Z,16.40
2022-11-14T06:37:54.287Z,16.73
2022-11-14T06:40:39.368Z,15.48
2022-11-14T06:43:24.414Z,16.23
2022-11-14T06:46:11.346Z,16.75
2022-11-14T06:48:56.481Z,16.33
2022-11-14T06:51:41.688Z,16.88
2022-11-14T06:54:26.810Z,15.05
2022-11-14T06:57:12.220Z,15.95
2022-11-14T06:59:57.585Z,15.93
2022-11-14T07:02:45.516Z,16.83
2022-11-14T07:05:30.980Z,15.55
2022-11-14T07:08:20.831Z,15.95
2022-11-14T07:11:12.944Z,16.20
2022-11-14T07:14:01.914Z,18.05
2022-11-14T07:16:47.171Z,16.90
2022-11-14T07:19:32.494Z,15.32
2022-11-14T07:22:17.617Z,16.13
2022-11-14T07:25:02.784Z,15.70
2022-11-14T07:27:47.944Z,16.55
2022-11-14T07:30:33.810Z,17.02
2022-11-14T07:33:18.950Z,15.02
2022-11-14T07:36:04.604Z,17.13
2022-11-14T07:38:49.882Z,24.92
2022-11-14T07:41:35.328Z,33.78
2022-11-14T07:44:20.514Z,22.55
2022-11-14T07:47:05.827Z,21.20
2022-11-14T07:49:51.319Z,18.13
2022-11-14T07:52:37.981Z,19.33
2022-11-14T07:55:23.888Z,18.30
2022-11-14T07:58:09.045Z,20.58
2022-11-14T08:00:54.337Z,17.75
2022-11-14T08:03:45.068Z,17.33
2022-11-14T08:06:30.700Z,18.40
2022-11-14T08:09:15.888Z,17.65
2022-11-14T08:12:01.148Z,17.67
2022-11-14T08:14:46.544Z,17.75
2022-11-14T08:17:31.903Z,18.42
2022-11-14T08:20:17.551Z,17.25
2022-11-14T08:23:03.599Z,17.33
2022-11-14T08:25:49.031Z,16.40
2022-11-14T08:28:34.337Z,18.00
2022-11-14T08:31:20.313Z,16.85
2022-11-14T08:34:05.736Z,17.48
2022-11-14T08:36:51.413Z,17.17
2022-11-14T08:39:36.396Z,16.90
2022-11-14T08:42:21.918Z,17.15
2022-11-14T08:45:07.277Z,18.58
2022-11-14T08:47:52.932Z,18.73
2022-11-14T08:50:37.920Z,18.85
2022-11-14T08:53:23.549Z,17.58
2022-11-14T08:56:10.018Z,18.23
2022-11-14T08:58:55.158Z,18.52
2022-11-14T09:01:40.600Z,18.40
2022-11-14T09:04:26.099Z,17.92
2022-11-14T09:07:11.856Z,17.88
2022-11-14T09:09:57.396Z,17.85
2022-11-14T09:12:42.720Z,18.60
2022-11-14T09:15:28.914Z,19.05
2022-11-14T09:18:15.263Z,17.77
2022-11-14T09:21:05.316Z,18.85
2022-11-14T09:23:50.771Z,18.45
2022-11-14T09:26:36.073Z,18.05
2022-11-14T09:29:21.564Z,17.95
2022-11-14T09:32:07.024Z,17.80
2022-11-14T09:34:52.422Z,16.38
2022-11-14T09:37:37.932Z,17.83
2022-11-14T09:40:23.460Z,18.98
2022-11-14T09:43:27.862Z,17.80
2022-11-14T09:46:17.558Z,18.48
2022-11-14T09:49:02.782Z,17.85
2022-11-14T09:51:50.282Z,17.27
2022-11-14T09:54:42.421Z,17.38
2022-11-14T09:57:27.884Z,19.58
2022-11-14T10:00:17.385Z,17.25
2022-11-14T10:03:03.283Z,18.90
2022-11-14T10:06:07.254Z,19.17
2022-11-14T10:09:11.137Z,20.13
2022-11-14T10:12:01.917Z,19.50
2022-11-14T10:14:57.788Z,19.65
2022-11-14T10:17:58.446Z,17.35
2022-11-14T10:21:07.921Z,18.17
2022-11-14T10:24:18.201Z,17.10
2022-11-14T10:27:04.667Z,17.58
2022-11-14T10:29:50.067Z,16.27
2022-11-14T10:32:35.372Z,15.77
2022-11-14T10:35:28.739Z,16.30
2022-11-14T10:38:19.986Z,16.65
2022-11-14T10:41:06.550Z,16.25
2022-11-14T10:43:51.894Z,16.50
2022-11-14T10:46:39.438Z,16.52
2022-11-14T10:49:26.013Z,15.75
2022-11-14T10:52:13.655Z,15.57
2022-11-14T10:55:00.319Z,15.48
2022-11-14T10:57:45.839Z,14.80
2022-11-14T11:00:31.009Z,14.88
2022-11-14T11:03:16.548Z,14.35
2022-11-14T11:06:04.423Z,13.50
2022-11-14T11:09:08.361Z,16.40
2022-11-14T11:11:55.587Z,15.85
2022-11-14T11:14:41.089Z,15.77
2022-11-14T11:17:31.492Z,14.57
2022-11-14T11:20:26.668Z,14.13
2022-11-14T11:23:12.009Z,15.43
2022-11-14T11:26:05.616Z,16.02
2022-11-14T11:29:03.225Z,17.50
2022-11-14T11:31:56.057Z,16.17
2022-11-14T11:34:41.491Z,16.35
2022-11-14T11:40:29.568Z,12.82
2022-11-14T11:43:41.854Z,12.60
2022-11-14T11:46:45.924Z,14.85
2022-11-14T11:49:30.941Z,10.52
2022-11-14T11:52:39.957Z,10.57
2022-11-14T11:55:27.160Z,10.32
2022-11-14T11:58:24.684Z,9.32
2022-11-14T12:01:11.784Z,9.70
2022-11-14T12:03:58.452Z,7.85
2022-11-14T12:06:55.492Z,8.15
2022-11-14T12:12:49.472Z,14.35
2022-11-14T12:15:53.098Z,14.55
2022-11-14T12:18:41.081Z,14.77
2022-11-14T12:21:26.272Z,14.05
2022-11-14T12:24:23.873Z,16.17
2022-11-14T12:27:18.524Z,15.60
2022-11-14T12:30:13.600Z,15.95
2022-11-14T12:33:04.586Z,14.50
2022-11-14T12:35:52.468Z,14.57
2022-11-14T12:38:45.765Z,14.70
2022-11-14T12:41:32.523Z,14.98
2022-11-14T12:44:26.879Z,13.55
2022-11-14T12:47:17.525Z,13.32
2022-11-14T12:50:06.294Z,12.73
2022-11-14T12:52:53.975Z,15.43
2022-11-14T12:55:42.153Z,15.68
2022-11-14T12:58:45.434Z,16.02
2022-11-14T13:01:37.928Z,15.57
2022-11-14T13:04:23.254Z,14.18
2022-11-14T13:07:31.344Z,14.38
2022-11-14T13:10:36.767Z,13.63
2022-11-14T13:13:41.031Z,14.70
2022-11-14T13:16:48.699Z,13.82
2022-11-14T13:19:53.109Z,16.58
2022-11-14T13:22:42.249Z,15.52
2022-11-14T13:25:27.509Z,15.75
2022-11-14T13:28:31.307Z,15.05
2022-11-14T13:31:16.406Z,14.27
2022-11-14T13:34:21.828Z,15.50
2022-11-14T13:37:27.370Z,14.60
2022-11-14T13:40:18.344Z,14.07
2022-11-14T13:43:12.879Z,13.75
2022-11-14T13:46:00.968Z,14.95
2022-11-14T13:48:49.341Z,14.68
2022-11-14T13:51:43.426Z,13.35
2022-11-14T13:54:29.305Z,14.45
2022-11-14T13:57:20.357Z,13.82
2022-11-14T14:00:16.804Z,13.82
2022-11-14T14:03:31.902Z,13.30
2022-11-14T14:06:29.321Z,12.20
2022-11-14T14:09:20.738Z,12.35
2022-11-14T14:12:17.930Z,12.63
2022-11-14T14:15:21.404Z,13.02
2022-11-14T14:18:16.089Z,12.23
2022-11-14T14:21:01.145Z,11.65
2022-11-14T14:23:53.361Z,11.93
2022-11-14T14:26:38.738Z,13.57
2022-11-14T14:29:27.879Z,12.82
2022-11-14T14:32:14.028Z,12.35
2022-11-14T14:35:00.646Z,13.07
2022-11-14T14:37:52.815Z,13.23
2022-11-14T14:40:39.020Z,12.20
2022-11-14T14:43:33.991Z,13.13
2022-11-14T14:46:26.752Z,12.73
2022-11-14T14:49:11.804Z,12.30
2022-11-14T14:51:58.857Z,12.35
2022-11-14T14:54:53.540Z,12.48
2022-11-14T14:57:38.702Z,11.95
2022-11-14T15:00:28.664Z,13.40
2022-11-14T15:03:13.786Z,12.43
2022-11-14T15:06:00.338Z,12.85
2022-11-14T15:08:46.031Z,12.93
2022-11-14T15:11:32.910Z,13.43
2022-11-14T15:14:21.507Z,11.75
2022-11-14T15:17:07.030Z,11.30
2022-11-14T15:19:53.331Z,12.13
2022-11-14T15:22:39.233Z,11.38
2022-11-14T15:25:24.329Z,10.95
2022-11-14T15:28:15.316Z,11.68
2022-11-14T15:31:01.875Z,11.73
2022-11-14T15:34:00.619Z,11.82
2022-11-14T15:37:04.817Z,11.43
2022-11-14T15:39:50.156Z,11.63
2022-11-14T15:42:35.305Z,10.35
2022-11-14T15:45:23.970Z,12.15
2022-11-14T15:48:15.678Z,11.18
2022-11-14T15:51:01.162Z,12.20
2022-11-14T15:53:49.239Z,11.38
2022-11-14T15:56:34.765Z,10.00
2022-11-14T15:59:20.533Z,9.77
2022-11-14T16:02:24.146Z,10.40
2022-11-14T16:05:12.425Z,9.40
2022-11-14T16:07:57.997Z,9.90
2022-11-14T16:10:43.203Z,9.88
2022-11-14T16:13:28.986Z,11.23
2022-11-14T16:16:14.674Z,10.68
2022-11-14T16:18:59.982Z,10.80
2022-11-14T16:21:45.403Z,11.40
2022-11-14T16:24:34.394Z,10.20
2022-11-14T16:27:19.547Z,10.93
2022-11-14T16:30:05.447Z,10.15
2022-11-14T16:32:51.323Z,10.60
2022-11-14T16:35:36.917Z,10.05
2022-11-14T16:38:22.080Z,9.20
2022-11-14T16:41:07.849Z,9.50
2022-11-14T16:43:56.930Z,8.38
2022-11-14T16:46:45.947Z,8.48
2022-11-14T16:49:31.011Z,8.98
2022-11-14T16:52:17.145Z,9.38
2022-11-14T16:55:02.221Z,9.10
2022-11-14T16:57:47.488Z,8.05
2022-11-14T17:00:33.601Z,8.23
2022-11-14T17:03:18.946Z,7.82
2022-11-14T17:06:07.685Z,7.65
2022-11-14T17:08:54.108Z,7.13
2022-11-14T17:11:39.249Z,7.28
2022-11-14T17:14:24.727Z,6.50
2022-11-14T17:17:10.098Z,6.53
2022-11-14T17:19:55.570Z,5.75
2022-11-14T17:22:40.945Z,5.55
2022-11-14T17:25:26.382Z,5.38
2022-11-14T17:28:12.818Z,5.28
2022-11-14T17:30:58.551Z,4.97
2022-11-14T17:33:44.534Z,5.80
2022-11-14T17:36:30.430Z,6.35
2022-11-14T17:39:15.618Z,5.43
2022-11-14T17:42:00.744Z,5.78
2022-11-14T17:44:46.448Z,5.57
2022-11-14T17:47:32.196Z,4.60
2022-11-14T17:50:17.778Z,4.53
2022-11-14T17:53:03.255Z,3.67
2022-11-14T17:55:54.481Z,3.17
2022-11-14T17:58:39.722Z,4.10
2022-11-14T18:01:25.333Z,3.92
2022-11-14T18:04:11.436Z,4.57
2022-11-14T18:06:56.730Z,4.53
2022-11-14T18:09:41.953Z,4.43
2022-11-14T18:12:27.422Z,5.05
2022-11-14T18:15:12.701Z,4.38
2022-11-14T18:17:58.083Z,3.97
2022-11-14T18:20:43.266Z,4.03
2022-11-14T18:23:28.641Z,3.90
2022-11-14T18:26:18.282Z,3.72
2022-11-14T18:29:03.597Z,3.22
2022-11-14T18:31:48.983Z,3.33
2022-11-14T18:34:36.984Z,3.50
2022-11-14T18:37:23.175Z,4.32
2022-11-14T18:40:13.409Z,3.55
2022-11-14T18:43:01.181Z,4.35
2022-11-14T18:45:46.285Z,4.25
2022-11-14T18:48:31.630Z,5.00
2022-11-14T18:51:20.886Z,4.25
2022-11-14T18:54:06.579Z,6.00
2022-11-14T18:56:51.980Z,6.03
2022-11-14T18:59:37.464Z,5.15
2022-11-14T19:02:22.700Z,5.32
2022-11-14T19:05:08.246Z,4.50
2022-11-14T19:07:53.516Z,4.72
2022-11-14T19:10:38.929Z,4.85
2022-11-14T19:13:24.363Z,5.53
2022-11-14T19:16:09.942Z,6.00
2022-11-14T19:18:55.348Z,6.85
2022-11-14T19:21:40.991Z,7.30
2022-11-14T19:24:26.085Z,6.78
2022-11-14T19:27:11.608Z,6.20
2022-11-14T19:29:56.777Z,6.13
2022-11-14T19:32:41.844Z,6.97
2022-11-14T19:35:27.039Z,5.25
2022-11-14T19:38:12.249Z,5.03
2022-11-14T19:41:00.867Z,4.65
2022-11-14T19:43:48.901Z,4.82
2022-11-14T19:46:35.684Z,5.15
2022-11-14T19:49:21.114Z,6.07
2022-11-14T19:52:06.287Z,6.60
2022-11-14T19:54:52.513Z,8.18
2022-11-14T19:57:37.558Z,6.68
2022-11-14T20:00:25.000Z,5.78
2022-11-14T20:03:11.181Z,5.55
2022-11-14T20:05:56.692Z,4.20
2022-11-14T20:08:42.130Z,4.90
2022-11-14T20:11:28.062Z,4.80
2022-11-14T20:14:13.700Z,4.65
2022-11-14T20:16:59.051Z,4.20
2022-11-14T20:19:44.437Z,4.43
2022-11-14T20:22:29.826Z,3.95
2022-11-14T20:25:17.046Z,3.35
2022-11-14T20:28:02.805Z,3.92
2022-11-14T20:30:48.086Z,4.93
2022-11-14T20:33:36.766Z,3.72
2022-11-14T20:36:23.947Z,3.35
2022-11-14T20:39:09.300Z,4.00
2022-11-14T20:41:54.792Z,3.40
2022-11-14T20:44:40.590Z,3.40
2022-11-14T20:47:27.477Z,3.20
2022-11-14T20:50:13.555Z,3.30
2022-11-14T20:52:58.828Z,2.88
2022-11-14T20:55:44.021Z,3.30
2022-11-14T20:58:29.128Z,3.28
2022-11-14T21:01:15.452Z,3.17
2022-11-14T21:04:00.851Z,3.28
2022-11-14T21:06:45.856Z,4.25
2022-11-14T21:09:31.311Z,4.32
2022-11-14T21:12:16.386Z,4.55
2022-11-14T21:15:01.537Z,4.88
2022-11-14T21:17:46.697Z,4.90
2022-11-14T21:20:32.219Z,5.13
2022-11-14T21:23:17.526Z,4.88
2022-11-14T21:26:09.747Z,4.70
2022-11-14T21:28:56.507Z,4.55
2022-11-14T21:31:43.530Z,4.90
2022-11-14T21:34:28.712Z,5.20
2022-11-14T21:37:14.295Z,5.40
2022-11-14T21:39:59.681Z,5.93
2022-11-14T21:42:46.788Z,7.15
2022-11-14T21:45:32.197Z,6.63
2022-11-14T21:48:17.509Z,6.82
2022-11-14T21:51:06.168Z,7.95
2022-11-14T21:53:55.684Z,8.85
2022-11-14T21:56:40.981Z,11.80
2022-11-14T21:59:28.486Z,11.60
2022-11-14T22:02:32.681Z,10.77
2022-11-14T22:05:18.097Z,9.98
2022-11-14T22:08:03.520Z,10.65
2022-11-14T22:10:48.489Z,9.27
2022-11-14T22:13:34.385Z,9.85
2022-11-14T22:16:19.762Z,9.05
2022-11-14T22:19:05.815Z,10.10
2022-11-14T22:21:51.615Z,10.35
2022-11-14T22:24:37.128Z,9.15
2022-11-14T22:27:22.275Z,8.10
2022-11-14T22:30:10.892Z,8.27
2022-11-14T22:32:56.166Z,6.25
2022-11-14T22:35:41.431Z,8.35
2022-11-14T22:38:28.514Z,7.90
2022-11-14T22:41:14.843Z,6.78
2022-11-14T22:44:00.510Z,6.40
2022-11-14T22:46:46.047Z,7.00
2022-11-14T22:49:31.209Z,9.68
2022-11-14T22:52:16.589Z,8.45
2022-11-14T22:55:01.966Z,8.70
2022-11-14T22:57:47.358Z,9.65
2022-11-14T23:00:32.745Z,6.47
2022-11-14T23:03:20.528Z,6.43
2022-11-14T23:06:09.862Z,5.80
2022-11-14T23:08:55.186Z,5.30
2022-11-14T23:11:40.784Z,7.22
2022-11-14T23:14:26.345Z,6.45
2022-11-14T23:17:11.723Z,8.07
2022-11-14T23:19:56.782Z,7.35
2022-11-14T23:22:42.193Z,6.72
2022-11-14T23:25:27.725Z,9.82
2022-11-14T23:28:13.199Z,7.78
2022-11-14T23:30:59.257Z,7.13
2022-11-14T23:33:48.194Z,8.43
2022-11-14T23:36:33.664Z,8.95
2022-11-14T23:39:18.810Z,8.70
2022-11-14T23:42:04.087Z,7.30
2022-11-14T23:44:49.345Z,9.38
2022-11-14T23:47:34.841Z,8.57
2022-11-14T23:50:20.138Z,7.88
2022-11-14T23:53:05.681Z,8.20
2022-11-14T23:55:54.177Z,9.63
2022-11-14T23:58:39.773Z,7.60
